Time;durP1;ratioP1;P1;durP2;ratioP2;P2;SDS_P1;SDS_P2;PMS_P1;PMS_P2;Temp;Humidity;BMP_temperature;BMP_pressure;BME280_temperature;BME280_humidity;BME280_pressure;Samples;Min_cycle;Max_cycle;Signal;HPM_P1;HPM_P2
2021/12/19 00:00:32;;;;;;;;;;;6.10;99.90;;;;;;5118303;27;20377;-70
2021/12/19 00:10:53;;;;;;;;;;;6.10;99.90;;;;;;5114705;28;19915;-70
2021/12/19 00:13:19;;;;;;;;;;;6.00;99.90;;;;;;5115153;28;19907;-70
2021/12/19 00:15:44;;;;;;;;;;;6.00;99.90;;;;;;5114000;28;19915;-70
2021/12/19 00:18:10;;;;;;;;;;;6.00;99.90;;;;;;5121942;27;20023;-70
2021/12/19 00:20:35;;;;;;;;;;;6.10;99.90;;;;;;5134212;27;20360;-70
2021/12/19 00:23:01;;;;;;;;;;;6.20;99.90;;;;;;5114513;28;19912;-70
2021/12/19 00:25:27;;;;;;;;;;;;;;;;;;5124577;27;19912;-72
2021/12/19 00:27:52;;;;;;;;;;;6.10;99.90;;;;;;5099998;27;19955;-70
2021/12/19 00:30:18;;;;;;;;;;;6.00;99.90;;;;;;5134785;27;20274;-70
2021/12/19 00:32:43;;;;;;;;;;;5.90;99.90;;;;;;5115491;27;19912;-70
2021/12/19 00:35:09;;;;;;;;;;;5.90;99.90;;;;;;5114128;28;19960;-70
2021/12/19 00:37:34;;;;;;;;;;;5.90;99.90;;;;;;5113517;28;19914;-70
2021/12/19 00:40:00;;;;;;;;;;;5.90;99.90;;;;;;5096130;28;19908;-70
2021/12/19 00:42:27;;;;;;;;;;;6.10;99.90;;;;;;5122586;27;20340;-70
2021/12/19 00:44:53;;;;;;;;;;;6.00;99.90;;;;;;5113701;28;19907;-70
2021/12/19 00:47:18;;;;;;;;;;;6.00;99.90;;;;;;5098841;27;20279;-70
2021/12/19 00:49:44;;;;;;;;;;;6.00;99.90;;;;;;5134224;27;19907;-70
2021/12/19 00:52:09;;;;;;;;;;;6.00;99.90;;;;;;5117587;27;20487;-70
2021/12/19 00:54:35;;;;;;;;;;;6.10;99.90;;;;;;5121016;27;19915;-70
2021/12/19 00:57:00;;;;;;;;;;;6.10;99.90;;;;;;5124376;27;19907;-70
2021/12/19 00:59:26;;;;;;;;;;;6.10;99.90;;;;;;5134088;27;20371;-70
2021/12/19 01:01:51;;;;;;;;;;;6.10;99.90;;;;;;5118876;27;19969;-70
2021/12/19 01:04:18;;;;;;;;;;;6.20;99.90;;;;;;5116759;27;19922;-70
2021/12/19 01:06:44;;;;;;;;;;;6.20;99.90;;;;;;5133562;27;19960;-70
2021/12/19 01:09:10;;;;;;;;;;;6.20;99.90;;;;;;5123039;27;20011;-70
2021/12/19 01:11:36;;;;;;;;;;;6.10;99.90;;;;;;5114273;27;19947;-70
2021/12/19 01:14:02;;;;;;;;;;;6.20;99.90;;;;;;5134138;27;19911;-70
2021/12/19 01:16:28;;;;;;;;;;;6.20;99.90;;;;;;5117867;27;19916;-70
2021/12/19 01:18:53;;;;;;;;;;;6.00;99.90;;;;;;5094411;28;19916;-70
2021/12/19 01:21:19;;;;;;;;;;;6.10;99.90;;;;;;5113522;28;19914;-70
2021/12/19 01:23:44;;;;;;;;;;;6.10;99.90;;;;;;5112418;28;19908;-70
2021/12/19 01:26:10;;;;;;;;;;;6.10;99.90;;;;;;5113335;28;20002;-70
2021/12/19 01:28:35;;;;;;;;;;;6.20;99.90;;;;;;5112996;28;19998;-70
2021/12/19 01:31:01;;;;;;;;;;;6.20;99.90;;;;;;5112934;28;19918;-70
2021/12/19 01:33:27;;;;;;;;;;;6.30;99.90;;;;;;5094967;28;20015;-70
2021/12/19 01:35:52;;;;;;;;;;;6.30;99.90;;;;;;5112692;28;19914;-70
2021/12/19 01:38:18;;;;;;;;;;;6.20;99.90;;;;;;5113188;28;19953;-70
2021/12/19 01:40:43;;;;;;;;;;;6.10;99.90;;;;;;5112484;28;19908;-70
2021/12/19 01:43:09;;;;;;;;;;;6.20;99.90;;;;;;5113268;28;20356;-70
2021/12/19 01:45:35;;;;;;;;;;;;;;;;;;5101796;28;20367;-72
2021/12/19 01:48:03;;;;;;;;;;;6.10;99.90;;;;;;5133729;27;19911;-70
2021/12/19 01:50:29;;;;;;;;;;;6.00;99.90;;;;;;5115315;27;19954;-70
2021/12/19 01:52:55;;;;;;;;;;;6.00;99.90;;;;;;5132863;27;19912;-70
2021/12/19 01:55:20;;;;;;;;;;;5.80;99.90;;;;;;5129586;27;20025;-70
2021/12/19 01:57:46;;;;;;;;;;;5.80;99.90;;;;;;5111853;28;20010;-70
2021/12/19 02:00:19;;;;;;;;;;;5.80;99.90;;;;;;5113145;28;19937;-70
2021/12/19 02:02:45;;;;;;;;;;;;;;;;;;5112048;28;19930;-70
2021/12/19 02:05:11;;;;;;;;;;;5.70;99.90;;;;;;5112791;28;20363;-70
2021/12/19 02:07:37;;;;;;;;;;;5.70;99.90;;;;;;5112464;28;19907;-70
2021/12/19 02:10:03;;;;;;;;;;;5.70;99.90;;;;;;5112965;28;19914;-70
2021/12/19 02:12:29;;;;;;;;;;;5.70;99.90;;;;;;5112931;28;19954;-70
2021/12/19 02:14:54;;;;;;;;;;;5.70;99.90;;;;;;5114453;28;19988;-70
2021/12/19 02:17:20;;;;;;;;;;;5.80;99.90;;;;;;5095446;28;20325;-70
2021/12/19 02:19:45;;;;;;;;;;;5.70;99.90;;;;;;5112056;28;20352;-70
2021/12/19 02:22:11;;;;;;;;;;;5.70;99.90;;;;;;5112563;28;20010;-70
2021/12/19 02:24:37;;;;;;;;;;;;;;;;;;5112516;28;20309;-72
2021/12/19 02:27:02;;;;;;;;;;;5.60;99.90;;;;;;5094529;28;19908;-70
2021/12/19 02:29:28;;;;;;;;;;;5.70;99.90;;;;;;5112974;28;19947;-70
2021/12/19 02:31:53;;;;;;;;;;;5.70;99.90;;;;;;5093767;28;19927;-70
2021/12/19 02:34:23;;;;;;;;;;;5.70;99.90;;;;;;5112118;28;19961;-70
2021/12/19 02:37:05;;;;;;;;;;;5.80;99.90;;;;;;5111972;28;20006;-70
2021/12/19 02:50:04;;;;;;;;;;;5.70;99.90;;;;;;5137250;27;19915;-70
2021/12/19 02:52:30;;;;;;;;;;;5.70;99.90;;;;;;5136738;27;19935;-70
2021/12/19 02:54:55;;;;;;;;;;;5.70;99.90;;;;;;5135836;27;20468;-70
2021/12/19 02:57:23;;;;;;;;;;;5.70;99.90;;;;;;5116133;28;20416;-70
2021/12/19 02:59:49;;;;;;;;;;;5.70;99.90;;;;;;5097273;28;20011;-70
2021/12/19 03:02:16;;;;;;;;;;;5.70;99.90;;;;;;5116263;28;20003;-70
2021/12/19 03:04:53;;;;;;;;;;;5.70;99.90;;;;;;5115431;28;19908;-70
2021/12/19 03:07:19;;;;;;;;;;;5.80;99.90;;;;;;5115897;28;20410;-70
2021/12/19 03:20:08;;;;;;;;;;;5.80;99.90;;;;;;5095330;28;19923;-70
2021/12/19 03:22:33;;;;;;;;;;;5.80;99.90;;;;;;5076971;28;20282;-70
2021/12/19 03:24:59;;;;;;;;;;;5.70;99.90;;;;;;5092589;28;20004;-70
2021/12/19 03:27:24;;;;;;;;;;;5.80;99.90;;;;;;5082678;28;20303;-70
2021/12/19 03:29:50;;;;;;;;;;;5.80;99.90;;;;;;5094333;28;19912;-70
2021/12/19 03:32:15;;;;;;;;;;;5.70;99.90;;;;;;5077119;28;20384;-70
2021/12/19 03:34:41;;;;;;;;;;;;;;;;;;5093959;28;19915;-72
2021/12/19 03:37:07;;;;;;;;;;;5.80;99.90;;;;;;5095195;28;19904;-70
2021/12/19 03:39:37;;;;;;;;;;;5.70;99.90;;;;;;5095056;28;19920;-70
2021/12/19 03:42:04;;;;;;;;;;;5.80;99.90;;;;;;5094683;28;19912;-70
2021/12/19 03:44:29;;;;;;;;;;;5.70;99.90;;;;;;5077023;28;19960;-70
2021/12/19 03:46:55;;;;;;;;;;;5.80;99.90;;;;;;5131192;27;20014;-70
2021/12/19 03:49:20;;;;;;;;;;;5.80;99.90;;;;;;5116843;27;20367;-69
2021/12/19 03:51:46;;;;;;;;;;;5.80;99.90;;;;;;5135139;27;19933;-70
2021/12/19 03:54:12;;;;;;;;;;;5.80;99.90;;;;;;5116806;27;20002;-70
2021/12/19 03:56:37;;;;;;;;;;;5.80;99.90;;;;;;5121813;27;19912;-70
2021/12/19 03:59:03;;;;;;;;;;;5.80;99.90;;;;;;5114109;28;19920;-70
2021/12/19 04:01:28;;;;;;;;;;;5.80;99.90;;;;;;5096866;28;20292;-70
2021/12/19 04:03:54;;;;;;;;;;;5.80;99.90;;;;;;5114051;28;19953;-71
2021/12/19 04:06:20;;;;;;;;;;;5.80;99.90;;;;;;5115150;28;20272;-70
2021/12/19 04:08:46;;;;;;;;;;;5.70;99.90;;;;;;5113560;28;19916;-70
2021/12/19 04:11:11;;;;;;;;;;;5.70;99.90;;;;;;5114961;28;19998;-70
2021/12/19 04:13:37;;;;;;;;;;;5.80;99.90;;;;;;5114874;28;19960;-70
2021/12/19 04:16:02;;;;;;;;;;;5.80;99.90;;;;;;5124779;27;20279;-70
2021/12/19 04:18:28;;;;;;;;;;;5.80;99.90;;;;;;5135303;27;20279;-69
2021/12/19 04:20:53;;;;;;;;;;;5.70;99.90;;;;;;5134128;27;19907;-70
2021/12/19 04:23:19;;;;;;;;;;;5.80;99.90;;;;;;5115195;27;20317;-70
2021/12/19 04:25:45;;;;;;;;;;;;;;;;;;5113728;28;19915;-71
2021/12/19 04:28:11;;;;;;;;;;;5.70;99.90;;;;;;5114352;28;19908;-70
2021/12/19 04:30:36;;;;;;;;;;;5.70;99.90;;;;;;5096276;28;19923;-70
2021/12/19 04:33:09;;;;;;;;;;;5.70;99.90;;;;;;5113704;28;19904;-70
2021/12/19 04:35:36;;;;;;;;;;;5.70;99.90;;;;;;5114738;28;19916;-70
2021/12/19 04:40:58;;;;;;;;;;;5.70;99.90;;;;;;5114486;28;19908;-70
2021/12/19 04:52:23;;;;;;;;;;;5.70;99.90;;;;;;5113955;28;19915;-70
2021/12/19 04:55:09;;;;;;;;;;;5.70;99.90;;;;;;5113091;28;19907;-70
2021/12/19 04:57:32;;;;;;;;;;;5.70;99.90;;;;;;5113075;28;19953;-70
2021/12/19 05:16:05;;;;;;;;;;;5.80;99.90;;;;;;5115425;27;20408;-70
2021/12/19 05:18:34;;;;;;;;;;;5.80;99.90;;;;;;5130067;27;20014;-70
2021/12/19 05:21:12;;;;;;;;;;;5.80;99.90;;;;;;5133387;27;19914;-70
2021/12/19 05:24:18;;;;;;;;;;;5.80;99.90;;;;;;5134245;27;19914;-70
2021/12/19 05:26:42;;;;;;;;;;;5.80;99.90;;;;;;5125432;27;20033;-70
2021/12/19 05:29:09;;;;;;;;;;;5.70;99.90;;;;;;5112780;28;19912;-70
2021/12/19 05:31:34;;;;;;;;;;;5.70;99.90;;;;;;5095420;28;19912;-70
2021/12/19 05:34:00;;;;;;;;;;;5.80;99.90;;;;;;5112354;28;19939;-70
2021/12/19 05:47:06;;;;;;;;;;;5.80;99.90;;;;;;5112921;27;19922;-70
2021/12/19 05:49:32;;;;;;;;;;;;;;;;;;5112843;28;19912;-70
2021/12/19 05:51:58;;;;;;;;;;;5.70;99.90;;;;;;5111723;28;19930;-70
2021/12/19 05:54:23;;;;;;;;;;;5.70;99.90;;;;;;5094706;28;20360;-70
2021/12/19 05:56:49;;;;;;;;;;;5.70;99.90;;;;;;5093938;28;19908;-70
2021/12/19 05:59:14;;;;;;;;;;;5.80;99.90;;;;;;5112823;28;19926;-70
2021/12/19 06:01:42;;;;;;;;;;;5.90;99.90;;;;;;5112928;28;20321;-70
2021/12/19 06:04:08;;;;;;;;;;;5.80;99.90;;;;;;5112749;28;19907;-70
2021/12/19 06:06:34;;;;;;;;;;;5.80;99.90;;;;;;5113059;28;20483;-70
2021/12/19 06:08:59;;;;;;;;;;;5.80;99.90;;;;;;5112414;28;19912;-70
2021/12/19 06:11:25;;;;;;;;;;;5.70;99.90;;;;;;5113157;28;20377;-70
2021/12/19 06:13:50;;;;;;;;;;;5.70;99.90;;;;;;5112755;28;19916;-70
2021/12/19 06:16:16;;;;;;;;;;;5.70;99.90;;;;;;5095463;28;19912;-70
2021/12/19 06:18:42;;;;;;;;;;;5.70;99.90;;;;;;5112937;28;19923;-70
2021/12/19 06:21:09;;;;;;;;;;;5.70;99.90;;;;;;5115999;28;19923;-70
2021/12/19 06:23:34;;;;;;;;;;;5.70;99.90;;;;;;5117408;28;19908;-70
2021/12/19 06:26:00;;;;;;;;;;;5.70;99.90;;;;;;5134569;27;20287;-70
2021/12/19 06:28:26;;;;;;;;;;;5.70;99.90;;;;;;5133366;27;19911;-69
2021/12/19 06:30:52;;;;;;;;;;;5.70;99.90;;;;;;5136273;27;19943;-69
2021/12/19 06:33:18;;;;;;;;;;;;;;;;;;5123890;27;20012;-69
2021/12/19 06:35:43;;;;;;;;;;;5.70;99.90;;;;;;5117250;28;19908;-69
2021/12/19 06:38:09;;;;;;;;;;;;;;;;;;5115850;28;19915;-70
2021/12/19 06:40:35;;;;;;;;;;;;;;;;;;5129699;27;19912;-69
2021/12/19 06:43:01;;;;;;;;;;;5.70;99.90;;;;;;5116287;28;19915;-69
2021/12/19 06:45:27;;;;;;;;;;;;;;;;;;5116859;28;19912;-69
2021/12/19 06:47:52;;;;;;;;;;;5.70;99.90;;;;;;5116004;28;20428;-70
2021/12/19 06:50:18;;;;;;;;;;;5.70;99.90;;;;;;5116494;28;19915;-69
2021/12/19 06:52:44;;;;;;;;;;;5.70;99.90;;;;;;5116709;28;19920;-69
2021/12/19 06:55:11;;;;;;;;;;;5.70;99.90;;;;;;5126620;27;19908;-69
2021/12/19 06:57:37;;;;;;;;;;;5.70;99.90;;;;;;5119993;27;20910;-69
2021/12/19 07:00:13;;;;;;;;;;;5.70;99.90;;;;;;5117092;27;20014;-69
2021/12/19 07:02:39;;;;;;;;;;;5.70;99.90;;;;;;5116403;28;19911;-69
2021/12/19 07:05:05;;;;;;;;;;;5.80;99.90;;;;;;5115971;28;19908;-69
2021/12/19 07:07:31;;;;;;;;;;;5.70;99.90;;;;;;5116523;27;19908;-69
2021/12/19 07:09:57;;;;;;;;;;;;;;;;;;5115255;28;19934;-69
2021/12/19 07:12:26;;;;;;;;;;;5.80;99.90;;;;;;5115748;28;20360;-69
2021/12/19 07:14:52;;;;;;;;;;;;;;;;;;5115520;28;19907;-71
2021/12/19 07:17:18;;;;;;;;;;;5.70;99.90;;;;;;5097221;28;19951;-69
2021/12/19 07:19:43;;;;;;;;;;;5.60;99.90;;;;;;5115785;28;19915;-69
2021/12/19 07:22:09;;;;;;;;;;;5.70;99.90;;;;;;5120814;27;19915;-68
2021/12/19 07:24:34;;;;;;;;;;;5.70;99.90;;;;;;5136370;27;20358;-69
2021/12/19 07:27:00;;;;;;;;;;;5.70;99.90;;;;;;5124222;27;20260;-70
2021/12/19 07:29:25;;;;;;;;;;;5.70;99.90;;;;;;5115517;28;19957;-69
2021/12/19 07:31:51;;;;;;;;;;;;;;;;;;5114973;28;19916;-70
2021/12/19 07:34:17;;;;;;;;;;;5.70;99.90;;;;;;5114962;28;19918;-66
2021/12/19 07:36:49;;;;;;;;;;;5.70;99.90;;;;;;5115337;28;19914;-69
2021/12/19 07:39:40;;;;;;;;;;;5.70;99.90;;;;;;5114402;28;19916;-68
2021/12/19 07:42:06;;;;;;;;;;;;;;;;;;5095300;28;19912;-68
2021/12/19 07:44:32;;;;;;;;;;;5.70;99.90;;;;;;5113864;28;19965;-70
2021/12/19 07:46:57;;;;;;;;;;;5.60;99.90;;;;;;5094921;28;21219;-71
2021/12/19 07:49:23;;;;;;;;;;;5.60;99.90;;;;;;5111186;28;19958;-69
2021/12/19 07:51:48;;;;;;;;;;;;;;;;;;5113347;28;20424;-66
2021/12/19 07:54:14;;;;;;;;;;;5.70;99.90;;;;;;5111926;27;19919;-69
2021/12/19 07:56:40;;;;;;;;;;;5.60;99.90;;;;;;5113627;28;20307;-69
2021/12/19 07:59:05;;;;;;;;;;;5.60;99.90;;;;;;5113663;28;20280;-71
2021/12/19 08:01:31;;;;;;;;;;;5.50;99.90;;;;;;5096378;28;19954;-68
2021/12/19 08:03:57;;;;;;;;;;;;;;;;;;5114014;28;19924;-74
2021/12/19 08:06:23;;;;;;;;;;;5.60;99.90;;;;;;5114480;28;19912;-69
2021/12/19 08:08:52;;;;;;;;;;;5.60;99.90;;;;;;5114454;28;19912;-71
2021/12/19 08:14:02;;;;;;;;;;;5.60;99.90;;;;;;5113628;28;19915;-71
2021/12/19 08:16:28;;;;;;;;;;;;;;;;;;5113993;28;19911;-71
2021/12/19 08:18:54;;;;;;;;;;;;;;;;;;5113712;28;19923;-70
2021/12/19 08:21:20;;;;;;;;;;;5.60;99.90;;;;;;5113811;28;19952;-70
2021/12/19 08:23:46;;;;;;;;;;;;;;;;;;5116071;27;19911;-67
2021/12/19 08:26:12;;;;;;;;;;;;;;;;;;5112546;28;19915;-69
2021/12/19 08:28:37;;;;;;;;;;;5.40;99.90;;;;;;5094559;28;19915;-65
2021/12/19 08:31:03;;;;;;;;;;;5.50;99.90;;;;;;5112697;28;19959;-69
2021/12/19 08:33:28;;;;;;;;;;;5.50;99.90;;;;;;5112823;28;19938;-69
2021/12/19 08:35:54;;;;;;;;;;;;;;;;;;5113129;28;19934;-71
2021/12/19 08:38:19;;;;;;;;;;;5.40;99.90;;;;;;5112776;28;19923;-69
2021/12/19 08:40:47;;;;;;;;;;;5.40;99.90;;;;;;5113677;28;19908;-69
2021/12/19 08:43:13;;;;;;;;;;;5.50;99.90;;;;;;5112282;28;19912;-69
2021/12/19 08:45:39;;;;;;;;;;;5.60;99.90;;;;;;5113945;28;19920;-69
2021/12/19 08:48:05;;;;;;;;;;;5.50;99.90;;;;;;5107966;28;20279;-69
2021/12/19 08:50:30;;;;;;;;;;;;;;;;;;5110476;28;19916;-69
2021/12/19 08:52:56;;;;;;;;;;;;;;;;;;5110557;28;20030;-72
2021/12/19 08:55:22;;;;;;;;;;;5.60;99.90;;;;;;5109842;28;19911;-70
2021/12/19 08:57:48;;;;;;;;;;;;;;;;;;5109774;27;20356;-70
2021/12/19 09:00:14;;;;;;;;;;;5.70;99.90;;;;;;5110369;28;19931;-70
2021/12/19 09:02:41;;;;;;;;;;;;;;;;;;5110570;28;19955;-69
2021/12/19 09:05:08;;;;;;;;;;;5.70;99.90;;;;;;5091614;28;20310;-69
2021/12/19 09:07:33;;;;;;;;;;;5.70;99.90;;;;;;5110508;28;19911;-70
2021/12/19 09:09:59;;;;;;;;;;;;;;;;;;5113345;27;19916;-74
2021/12/19 09:12:27;;;;;;;;;;;;;;;;;;5127686;27;20363;-73
2021/12/19 09:14:53;;;;;;;;;;;;;;;;;;5091556;28;20654;-72
2021/12/19 09:17:18;;;;;;;;;;;5.80;99.90;;;;;;5111621;28;19912;-73
2021/12/19 09:19:44;;;;;;;;;;;5.80;99.90;;;;;;5112268;28;19911;-73
2021/12/19 09:22:09;;;;;;;;;;;5.70;99.90;;;;;;5112801;28;19912;-74
2021/12/19 09:24:35;;;;;;;;;;;5.70;99.90;;;;;;5113379;28;20002;-71
2021/12/19 09:27:03;;;;;;;;;;;5.70;99.90;;;;;;5112496;28;19912;-73
2021/12/19 09:29:28;;;;;;;;;;;5.70;99.90;;;;;;5095163;28;19912;-70
2021/12/19 09:31:55;;;;;;;;;;;5.80;99.90;;;;;;5113840;28;19919;-70
2021/12/19 09:34:20;;;;;;;;;;;5.70;99.90;;;;;;5112563;28;19908;-69
2021/12/19 09:36:46;;;;;;;;;;;5.70;99.90;;;;;;5094581;28;19912;-71
2021/12/19 09:39:11;;;;;;;;;;;5.70;99.90;;;;;;5125911;27;20010;-72
2021/12/19 09:41:43;;;;;;;;;;;5.70;99.90;;;;;;5114868;27;20364;-70
2021/12/19 09:44:11;;;;;;;;;;;5.70;99.90;;;;;;5111790;28;19908;-68
2021/12/19 09:46:38;;;;;;;;;;;5.70;99.90;;;;;;5112824;27;19916;-70
2021/12/19 09:49:04;;;;;;;;;;;5.60;99.90;;;;;;5111884;28;19907;-70
2021/12/19 09:51:30;;;;;;;;;;;5.70;99.90;;;;;;5093014;28;19990;-70
2021/12/19 09:53:55;;;;;;;;;;;5.70;99.90;;;;;;5111884;28;19999;-70
2021/12/19 09:56:21;;;;;;;;;;;5.70;99.90;;;;;;5092681;28;19964;-71
2021/12/19 09:58:48;;;;;;;;;;;5.70;99.90;;;;;;5110923;28;19924;-71
2021/12/19 10:01:14;;;;;;;;;;;;;;;;;;5110894;28;20289;-71
2021/12/19 10:03:39;;;;;;;;;;;5.80;99.90;;;;;;5112217;28;19908;-70
2021/12/19 10:06:22;;;;;;;;;;;5.70;99.90;;;;;;5111973;28;19962;-71
2021/12/19 10:09:06;;;;;;;;;;;5.70;99.90;;;;;;5115238;28;20038;-70
2021/12/19 10:11:44;;;;;;;;;;;5.80;99.90;;;;;;5094701;28;20044;-71
2021/12/19 10:14:27;;;;;;;;;;;5.80;99.90;;;;;;5111889;28;19915;-71
2021/12/19 10:16:53;;;;;;;;;;;5.80;99.90;;;;;;5094663;28;20272;-70
2021/12/19 10:19:19;;;;;;;;;;;;;;;;;;5108491;28;19927;-71
2021/12/19 10:21:44;;;;;;;;;;;5.90;99.90;;;;;;5110356;28;19916;-71
2021/12/19 10:24:28;;;;;;;;;;;5.70;99.90;;;;;;5112044;28;20487;-72
2021/12/19 10:26:53;;;;;;;;;;;5.80;99.90;;;;;;5112893;28;19915;-74
2021/12/19 10:29:19;;;;;;;;;;;5.80;99.90;;;;;;5111961;28;19919;-73
2021/12/19 10:32:01;;;;;;;;;;;5.80;99.90;;;;;;5112776;28;19965;-70
2021/12/19 10:34:26;;;;;;;;;;;5.80;99.90;;;;;;5112888;28;19911;-69
2021/12/19 10:36:52;;;;;;;;;;;5.70;99.90;;;;;;5094541;28;19908;-68
2021/12/19 10:39:19;;;;;;;;;;;5.80;99.90;;;;;;5112736;28;19920;-67
2021/12/19 10:41:55;;;;;;;;;;;5.90;99.90;;;;;;5112257;28;19908;-70
2021/12/19 10:47:20;;;;;;;;;;;6.00;99.90;;;;;;5112560;28;19915;-69
2021/12/19 10:49:46;;;;;;;;;;;5.90;99.90;;;;;;5112938;28;19908;-69
2021/12/19 10:52:11;;;;;;;;;;;5.90;99.90;;;;;;5112102;28;20359;-69
2021/12/19 10:54:54;;;;;;;;;;;5.90;99.90;;;;;;5112634;28;19960;-69
2021/12/19 10:57:29;;;;;;;;;;;5.90;99.90;;;;;;5111437;28;19922;-69
2021/12/19 10:59:55;;;;;;;;;;;5.90;99.90;;;;;;5094429;28;19981;-68
2021/12/19 11:02:33;;;;;;;;;;;5.80;99.90;;;;;;5111314;28;19916;-70
2021/12/19 11:04:59;;;;;;;;;;;5.80;99.90;;;;;;5112474;28;19914;-69
2021/12/19 11:07:24;;;;;;;;;;;5.80;99.90;;;;;;5115045;28;19912;-69
2021/12/19 11:09:50;;;;;;;;;;;;;;;;;;5131292;27;20294;-70
2021/12/19 11:12:15;;;;;;;;;;;5.90;99.90;;;;;;5094205;28;20003;-68
2021/12/19 11:14:43;;;;;;;;;;;5.80;99.90;;;;;;5115751;28;19907;-69
2021/12/19 11:17:18;;;;;;;;;;;5.80;99.90;;;;;;5115537;28;19931;-70
2021/12/19 11:19:44;;;;;;;;;;;5.80;99.90;;;;;;5115897;28;19916;-69
2021/12/19 11:22:11;;;;;;;;;;;5.80;99.90;;;;;;5115151;28;19976;-70
2021/12/19 11:24:36;;;;;;;;;;;5.90;99.90;;;;;;5116242;28;19912;-69
2021/12/19 11:27:02;;;;;;;;;;;;;;;;;;5115497;28;20019;-72
2021/12/19 11:29:28;;;;;;;;;;;;;;;;;;5115439;28;20362;-70
2021/12/19 11:31:59;;;;;;;;;;;5.90;99.90;;;;;;5097584;28;19912;-69
2021/12/19 11:34:33;;;;;;;;;;;5.90;99.90;;;;;;5114953;28;19911;-69
2021/12/19 11:36:59;;;;;;;;;;;;;;;;;;5115842;28;19914;-69
2021/12/19 11:39:26;;;;;;;;;;;5.80;99.90;;;;;;5108229;27;19998;-70
2021/12/19 11:42:02;;;;;;;;;;;5.80;99.90;;;;;;5136468;27;20405;-69
2021/12/19 11:44:32;;;;;;;;;;;5.90;99.90;;;;;;5122908;27;19912;-69
2021/12/19 11:47:04;;;;;;;;;;;5.90;99.90;;;;;;5115508;27;19990;-69
2021/12/19 11:49:29;;;;;;;;;;;5.90;99.90;;;;;;5114987;28;19908;-69
2021/12/19 11:52:13;;;;;;;;;;;6.00;99.90;;;;;;5115451;28;19960;-69
2021/12/19 11:54:39;;;;;;;;;;;5.90;99.90;;;;;;5115570;28;19908;-69
2021/12/19 11:57:05;;;;;;;;;;;;;;;;;;5115268;28;19914;-73
2021/12/19 11:59:30;;;;;;;;;;;6.00;99.90;;;;;;5096237;28;19955;-70
2021/12/19 12:02:16;;;;;;;;;;;6.00;99.90;;;;;;5115174;28;19962;-69
2021/12/19 12:04:41;;;;;;;;;;;6.10;99.90;;;;;;5115049;28;19914;-70
2021/12/19 12:07:07;;;;;;;;;;;;;;;;;;5114512;28;19907;-73
2021/12/19 12:09:39;;;;;;;;;;;6.00;99.90;;;;;;5127849;27;19922;-69
2021/12/19 12:12:08;;;;;;;;;;;;;;;;;;5117043;27;19994;-72
2021/12/19 12:14:39;;;;;;;;;;;6.00;99.90;;;;;;5114603;28;19912;-70
2021/12/19 12:17:08;;;;;;;;;;;;;;;;;;5114326;28;19919;-69
2021/12/19 12:19:38;;;;;;;;;;;6.00;99.90;;;;;;5096296;28;19916;-69
2021/12/19 12:25:08;;;;;;;;;;;6.00;99.90;;;;;;5114082;28;20321;-69
2021/12/19 12:27:45;;;;;;;;;;;6.00;99.90;;;;;;5115014;28;19927;-69
2021/12/19 12:30:13;;;;;;;;;;;6.00;99.90;;;;;;5114021;28;19912;-70
2021/12/19 12:32:38;;;;;;;;;;;6.00;99.90;;;;;;5113807;28;19916;-69
2021/12/19 12:35:04;;;;;;;;;;;;;;;;;;5095398;28;20454;-69
2021/12/19 12:37:31;;;;;;;;;;;6.00;99.90;;;;;;5095138;28;19912;-69
2021/12/19 12:40:19;;;;;;;;;;;6.00;99.90;;;;;;5114143;27;20002;-69
2021/12/19 12:42:57;;;;;;;;;;;6.10;99.90;;;;;;5113891;28;19919;-69
2021/12/19 12:45:24;;;;;;;;;;;6.00;99.90;;;;;;5113220;28;19999;-71
2021/12/19 12:47:49;;;;;;;;;;;6.00;99.90;;;;;;5113925;28;19930;-73
2021/12/19 12:50:15;;;;;;;;;;;6.00;99.90;;;;;;5113148;28;20365;-71
2021/12/19 12:52:40;;;;;;;;;;;6.00;99.90;;;;;;5096135;28;19907;-72
2021/12/19 12:55:06;;;;;;;;;;;6.00;99.90;;;;;;5111419;28;19908;-73
2021/12/19 12:57:35;;;;;;;;;;;6.00;99.90;;;;;;5114956;28;19908;-70
2021/12/19 13:00:00;;;;;;;;;;;5.90;99.90;;;;;;5115214;28;19920;-69
2021/12/19 13:02:40;;;;;;;;;;;6.00;99.90;;;;;;5113538;28;19915;-70
2021/12/19 13:05:10;;;;;;;;;;;6.00;99.90;;;;;;5114349;28;20358;-73
2021/12/19 13:07:35;;;;;;;;;;;6.00;99.90;;;;;;5114065;28;19994;-75
2021/12/19 13:10:01;;;;;;;;;;;6.00;99.90;;;;;;5133586;27;20375;-70
2021/12/19 13:12:28;;;;;;;;;;;6.00;99.90;;;;;;5134719;27;19915;-70
2021/12/19 13:14:55;;;;;;;;;;;6.00;99.90;;;;;;5101690;28;20279;-70
2021/12/19 13:17:27;;;;;;;;;;;6.00;99.90;;;;;;5112830;28;20018;-70
2021/12/19 13:20:02;;;;;;;;;;;6.00;99.90;;;;;;5113425;28;19916;-70
2021/12/19 13:22:30;;;;;;;;;;;6.10;99.90;;;;;;5112718;28;19911;-70
2021/12/19 13:24:57;;;;;;;;;;;6.00;99.90;;;;;;5112959;28;20002;-70
2021/12/19 13:27:30;;;;;;;;;;;6.10;99.90;;;;;;5112348;28;19911;-70
2021/12/19 13:29:56;;;;;;;;;;;;;;;;;;5112891;28;19912;-70
2021/12/19 13:32:22;;;;;;;;;;;;;;;;;;5112528;28;19998;-70
2021/12/19 13:34:48;;;;;;;;;;;6.10;99.90;;;;;;5113198;28;19911;-70
2021/12/19 13:37:13;;;;;;;;;;;;;;;;;;5112195;28;20421;-72
2021/12/19 13:39:41;;;;;;;;;;;6.10;99.90;;;;;;5128212;27;19977;-70
2021/12/19 13:42:10;;;;;;;;;;;6.10;99.90;;;;;;5133724;27;19907;-69
2021/12/19 13:44:36;;;;;;;;;;;6.10;99.90;;;;;;5122611;27;20403;-70
2021/12/19 13:47:25;;;;;;;;;;;6.10;99.90;;;;;;5112986;28;20041;-69
2021/12/19 13:49:50;;;;;;;;;;;6.00;99.90;;;;;;5101842;28;19908;-69
2021/12/19 13:52:18;;;;;;;;;;;6.10;99.90;;;;;;5093936;28;19915;-70
2021/12/19 13:54:43;;;;;;;;;;;6.10;99.90;;;;;;5112731;28;19930;-70
2021/12/19 13:57:09;;;;;;;;;;;;;;;;;;5112880;28;20348;-69
2021/12/19 13:59:39;;;;;;;;;;;6.20;99.90;;;;;;5111584;28;19920;-70
2021/12/19 14:02:09;;;;;;;;;;;6.20;99.90;;;;;;5113047;28;19911;-69
2021/12/19 14:04:34;;;;;;;;;;;6.20;99.90;;;;;;5112064;28;20014;-70
2021/12/19 14:07:03;;;;;;;;;;;6.20;99.90;;;;;;5112832;28;19962;-70
2021/12/19 14:09:28;;;;;;;;;;;6.20;99.90;;;;;;5120164;28;20043;-70
2021/12/19 14:12:01;;;;;;;;;;;6.10;99.90;;;;;;5112092;28;20480;-70
2021/12/19 14:14:30;;;;;;;;;;;6.10;99.90;;;;;;5093685;28;20308;-69
2021/12/19 14:16:56;;;;;;;;;;;;;;;;;;5094406;28;20287;-69
2021/12/19 14:19:26;;;;;;;;;;;6.10;99.90;;;;;;5111950;28;19964;-70
2021/12/19 14:22:06;;;;;;;;;;;6.10;99.90;;;;;;5094458;28;20307;-69
2021/12/19 14:24:32;;;;;;;;;;;6.10;99.90;;;;;;5111896;28;20049;-69
2021/12/19 14:27:18;;;;;;;;;;;6.20;99.90;;;;;;5112680;28;20347;-68
2021/12/19 14:29:48;;;;;;;;;;;6.10;99.90;;;;;;5111730;28;19916;-71
2021/12/19 14:32:14;;;;;;;;;;;;;;;;;;5112304;28;19915;-74
2021/12/19 14:34:44;;;;;;;;;;;6.20;99.90;;;;;;5111985;28;19908;-71
2021/12/19 14:37:16;;;;;;;;;;;6.20;99.90;;;;;;5114880;28;20029;-71
2021/12/19 14:39:42;;;;;;;;;;;;;;;;;;5132943;27;20359;-71
2021/12/19 14:42:13;;;;;;;;;;;6.20;99.90;;;;;;5136310;27;19935;-70
2021/12/19 14:44:38;;;;;;;;;;;6.30;99.90;;;;;;5128883;27;19931;-71
2021/12/19 14:47:04;;;;;;;;;;;;;;;;;;5116446;28;20360;-71
2021/12/19 14:49:30;;;;;;;;;;;;;;;;;;5097305;28;19908;-71
2021/12/19 14:51:56;;;;;;;;;;;;;;;;;;5116416;28;19908;-71
2021/12/19 14:54:22;;;;;;;;;;;;;;;;;;5115492;28;19955;-71
2021/12/19 14:56:48;;;;;;;;;;;6.20;99.90;;;;;;5115900;28;19946;-71
2021/12/19 14:59:17;;;;;;;;;;;;;;;;;;5115862;28;19926;-74
2021/12/19 15:01:42;;;;;;;;;;;6.10;99.90;;;;;;5116652;28;19912;-71
2021/12/19 15:04:09;;;;;;;;;;;6.10;99.90;;;;;;5097890;28;19956;-71
2021/12/19 15:06:41;;;;;;;;;;;6.00;99.90;;;;;;5115308;28;20332;-71
2021/12/19 15:09:08;;;;;;;;;;;6.10;99.90;;;;;;5115822;27;19908;-71
2021/12/19 15:11:35;;;;;;;;;;;6.20;99.90;;;;;;5115245;28;20022;-71
2021/12/19 15:14:01;;;;;;;;;;;6.10;99.90;;;;;;5097438;28;19930;-71
2021/12/19 15:16:26;;;;;;;;;;;;;;;;;;5116728;27;20372;-71
2021/12/19 15:18:52;;;;;;;;;;;6.10;99.90;;;;;;5116177;28;19931;-71
2021/12/19 15:21:18;;;;;;;;;;;;;;;;;;5115669;28;19915;-73
2021/12/19 15:23:43;;;;;;;;;;;6.10;99.90;;;;;;5115860;28;19908;-71
2021/12/19 15:26:14;;;;;;;;;;;6.10;99.90;;;;;;5097503;28;19914;-71
2021/12/19 15:28:40;;;;;;;;;;;;;;;;;;5114938;28;19977;-71
2021/12/19 15:31:05;;;;;;;;;;;6.10;99.90;;;;;;5114879;28;19912;-71
2021/12/19 15:33:31;;;;;;;;;;;6.10;99.90;;;;;;5115069;28;19947;-74
2021/12/19 15:35:56;;;;;;;;;;;6.10;99.90;;;;;;5116558;28;19921;-73
2021/12/19 15:38:22;;;;;;;;;;;6.10;99.90;;;;;;5115359;28;19923;-76
2021/12/19 15:40:48;;;;;;;;;;;6.10;99.90;;;;;;5115100;28;19953;-74
2021/12/19 15:43:13;;;;;;;;;;;6.00;99.90;;;;;;5115108;28;19908;-73
2021/12/19 15:45:39;;;;;;;;;;;6.10;99.90;;;;;;5114516;28;20022;-71
2021/12/19 15:48:04;;;;;;;;;;;6.00;99.90;;;;;;5115291;28;19908;-71
2021/12/19 15:50:30;;;;;;;;;;;6.00;99.90;;;;;;5096239;28;20271;-70
2021/12/19 15:52:56;;;;;;;;;;;6.00;99.90;;;;;;5115105;28;20401;-70
2021/12/19 15:55:21;;;;;;;;;;;6.00;99.90;;;;;;5114333;28;19915;-72
2021/12/19 15:57:47;;;;;;;;;;;;;;;;;;5096966;28;19924;-75
2021/12/19 16:00:16;;;;;;;;;;;6.00;99.90;;;;;;5115796;28;20019;-73
2021/12/19 16:02:42;;;;;;;;;;;6.00;99.90;;;;;;5114278;28;20391;-74
2021/12/19 16:05:08;;;;;;;;;;;5.90;99.90;;;;;;5115446;28;19912;-73